sensor_id;sensor_type;location;lat;lon;timestamp;P1;durP1;ratioP1;P2;durP2;ratioP2
62848;SDS011;48941;49.516;8.286;2024-01-16T00:00:12;8.50;;;4.50;;
62848;SDS011;48941;49.516;8.286;2024-01-16T00:02:42;10.68;;;4.82;;
62848;SDS011;48941;49.516;8.286;2024-01-16T00:05:10;7.10;;;4.32;;
62848;SDS011;48941;49.516;8.286;2024-01-16T00:07:38;8.45;;;4.50;;
62848;SDS011;48941;49.516;8.286;2024-01-16T00:10:07;8.70;;;4.40;;
62848;SDS011;48941;49.516;8.286;2024-01-16T00:12:35;8.43;;;4.47;;
62848;SDS011;48941;49.516;8.286;2024-01-16T00:15:04;11.52;;;5.00;;
62848;SDS011;48941;49.516;8.286;2024-01-16T00:17:32;9.60;;;4.72;;
62848;SDS011;48941;49.516;8.286;2024-01-16T00:20:02;9.77;;;4.68;;
62848;SDS011;48941;49.516;8.286;2024-01-16T00:22:31;14.55;;;4.88;;
62848;SDS011;48941;49.516;8.286;2024-01-16T00:24:59;15.05;;;4.38;;
62848;SDS011;48941;49.516;8.286;2024-01-16T00:27:27;10.48;;;4.50;;
62848;SDS011;48941;49.516;8.286;2024-01-16T00:29:54;10.57;;;4.35;;
62848;SDS011;48941;49.516;8.286;2024-01-16T00:32:22;11.48;;;4.88;;
62848;SDS011;48941;49.516;8.286;2024-01-16T00:34:50;9.45;;;4.45;;
62848;SDS011;48941;49.516;8.286;2024-01-16T00:37:19;10.65;;;4.50;;
62848;SDS011;48941;49.516;8.286;2024-01-16T00:39:48;7.65;;;4.45;;
62848;SDS011;48941;49.516;8.286;2024-01-16T00:42:15;9.52;;;4.75;;
62848;SDS011;48941;49.516;8.286;2024-01-16T00:44:43;10.52;;;4.82;;
62848;SDS011;48941;49.516;8.286;2024-01-16T00:47:11;15.25;;;4.72;;
62848;SDS011;48941;49.516;8.286;2024-01-16T00:49:39;12.05;;;5.10;;
62848;SDS011;48941;49.516;8.286;2024-01-16T00:52:07;10.35;;;4.40;;
62848;SDS011;48941;49.516;8.286;2024-01-16T00:54:36;11.55;;;5.18;;
62848;SDS011;48941;49.516;8.286;2024-01-16T00:57:05;11.85;;;5.18;;
62848;SDS011;48941;49.516;8.286;2024-01-16T00:59:32;12.70;;;5.47;;
62848;SDS011;48941;49.516;8.286;2024-01-16T01:02:00;9.07;;;5.07;;
62848;SDS011;48941;49.516;8.286;2024-01-16T01:04:29;9.93;;;5.57;;
62848;SDS011;48941;49.516;8.286;2024-01-16T01:07:00;8.98;;;4.95;;
62848;SDS011;48941;49.516;8.286;2024-01-16T01:09:27;14.68;;;6.65;;
62848;SDS011;48941;49.516;8.286;2024-01-16T01:11:57;14.05;;;6.45;;
62848;SDS011;48941;49.516;8.286;2024-01-16T01:14:24;14.85;;;6.15;;
62848;SDS011;48941;49.516;8.286;2024-01-16T01:16:55;16.38;;;6.35;;
62848;SDS011;48941;49.516;8.286;2024-01-16T01:19:22;9.45;;;4.65;;
62848;SDS011;48941;49.516;8.286;2024-01-16T01:21:50;8.70;;;4.78;;
62848;SDS011;48941;49.516;8.286;2024-01-16T01:24:18;7.53;;;4.50;;
62848;SDS011;48941;49.516;8.286;2024-01-16T01:26:46;15.10;;;5.03;;
62848;SDS011;48941;49.516;8.286;2024-01-16T01:29:15;8.32;;;4.68;;
62848;SDS011;48941;49.516;8.286;2024-01-16T01:31:45;10.20;;;4.55;;
62848;SDS011;48941;49.516;8.286;2024-01-16T01:34:14;9.50;;;4.65;;
62848;SDS011;48941;49.516;8.286;2024-01-16T01:36:42;9.18;;;4.72;;
62848;SDS011;48941;49.516;8.286;2024-01-16T01:39:10;8.63;;;4.70;;
62848;SDS011;48941;49.516;8.286;2024-01-16T01:41:38;10.75;;;5.18;;
62848;SDS011;48941;49.516;8.286;2024-01-16T01:44:06;15.38;;;5.70;;
62848;SDS011;48941;49.516;8.286;2024-01-16T01:46:43;10.82;;;5.00;;
62848;SDS011;48941;49.516;8.286;2024-01-16T01:49:13;10.93;;;5.47;;
62848;SDS011;48941;49.516;8.286;2024-01-16T01:51:42;10.80;;;5.05;;
62848;SDS011;48941;49.516;8.286;2024-01-16T01:54:10;9.43;;;4.88;;
62848;SDS011;48941;49.516;8.286;2024-01-16T01:56:41;8.13;;;5.35;;
62848;SDS011;48941;49.516;8.286;2024-01-16T01:59:11;8.68;;;5.18;;
62848;SDS011;48941;49.516;8.286;2024-01-16T02:01:42;10.40;;;5.47;;
62848;SDS011;48941;49.516;8.286;2024-01-16T02:04:12;13.73;;;5.63;;
62848;SDS011;48941;49.516;8.286;2024-01-16T02:06:42;9.25;;;5.07;;
62848;SDS011;48941;49.516;8.286;2024-01-16T02:09:11;9.65;;;5.50;;
62848;SDS011;48941;49.516;8.286;2024-01-16T02:11:39;10.80;;;5.15;;
62848;SDS011;48941;49.516;8.286;2024-01-16T02:14:07;10.40;;;5.20;;
62848;SDS011;48941;49.516;8.286;2024-01-16T02:16:38;9.20;;;5.20;;
62848;SDS011;48941;49.516;8.286;2024-01-16T02:19:08;9.18;;;5.03;;
62848;SDS011;48941;49.516;8.286;2024-01-16T02:21:37;10.57;;;5.28;;
62848;SDS011;48941;49.516;8.286;2024-01-16T02:24:12;19.42;;;5.20;;
62848;SDS011;48941;49.516;8.286;2024-01-16T02:26:41;13.40;;;5.38;;
62848;SDS011;48941;49.516;8.286;2024-01-16T02:29:09;13.10;;;5.05;;
62848;SDS011;48941;49.516;8.286;2024-01-16T02:31:37;14.80;;;5.57;;
62848;SDS011;48941;49.516;8.286;2024-01-16T02:34:04;14.00;;;5.53;;
62848;SDS011;48941;49.516;8.286;2024-01-16T02:36:32;9.90;;;5.13;;
62848;SDS011;48941;49.516;8.286;2024-01-16T02:39:00;10.68;;;5.35;;
62848;SDS011;48941;49.516;8.286;2024-01-16T02:41:29;10.10;;;4.68;;
62848;SDS011;48941;49.516;8.286;2024-01-16T02:43:57;9.98;;;5.32;;
62848;SDS011;48941;49.516;8.286;2024-01-16T02:46:25;12.40;;;5.75;;
62848;SDS011;48941;49.516;8.286;2024-01-16T02:48:53;9.70;;;5.38;;
62848;SDS011;48941;49.516;8.286;2024-01-16T02:51:23;13.77;;;5.80;;
62848;SDS011;48941;49.516;8.286;2024-01-16T02:53:51;14.57;;;5.82;;
62848;SDS011;48941;49.516;8.286;2024-01-16T02:56:19;12.35;;;5.95;;
62848;SDS011;48941;49.516;8.286;2024-01-16T02:58:48;9.60;;;5.07;;
62848;SDS011;48941;49.516;8.286;2024-01-16T03:01:16;12.18;;;6.15;;
62848;SDS011;48941;49.516;8.286;2024-01-16T03:03:44;12.63;;;5.82;;
62848;SDS011;48941;49.516;8.286;2024-01-16T03:06:20;14.07;;;5.88;;
62848;SDS011;48941;49.516;8.286;2024-01-16T03:08:49;10.18;;;5.65;;
62848;SDS011;48941;49.516;8.286;2024-01-16T03:11:17;9.73;;;5.75;;
62848;SDS011;48941;49.516;8.286;2024-01-16T03:13:45;12.50;;;5.90;;
62848;SDS011;48941;49.516;8.286;2024-01-16T03:16:16;18.92;;;6.00;;
62848;SDS011;48941;49.516;8.286;2024-01-16T03:18:44;12.23;;;5.57;;
62848;SDS011;48941;49.516;8.286;2024-01-16T03:21:13;11.00;;;5.95;;
62848;SDS011;48941;49.516;8.286;2024-01-16T03:23:41;10.60;;;5.90;;
62848;SDS011;48941;49.516;8.286;2024-01-16T03:26:11;19.38;;;6.10;;
62848;SDS011;48941;49.516;8.286;2024-01-16T03:28:40;14.40;;;6.05;;
62848;SDS011;48941;49.516;8.286;2024-01-16T03:31:08;12.82;;;6.47;;
62848;SDS011;48941;49.516;8.286;2024-01-16T03:33:37;13.60;;;5.95;;
62848;SDS011;48941;49.516;8.286;2024-01-16T03:36:09;12.07;;;6.10;;
62848;SDS011;48941;49.516;8.286;2024-01-16T03:38:39;8.48;;;5.85;;
62848;SDS011;48941;49.516;8.286;2024-01-16T03:41:07;12.82;;;6.85;;
62848;SDS011;48941;49.516;8.286;2024-01-16T03:43:35;14.23;;;6.18;;
62848;SDS011;48941;49.516;8.286;2024-01-16T03:46:03;12.20;;;6.28;;
62848;SDS011;48941;49.516;8.286;2024-01-16T03:48:31;12.35;;;5.82;;
62848;SDS011;48941;49.516;8.286;2024-01-16T03:51:01;12.60;;;5.82;;
62848;SDS011;48941;49.516;8.286;2024-01-16T03:53:29;14.88;;;6.20;;
62848;SDS011;48941;49.516;8.286;2024-01-16T03:55:56;13.40;;;7.07;;
62848;SDS011;48941;49.516;8.286;2024-01-16T03:58:24;15.00;;;6.47;;
62848;SDS011;48941;49.516;8.286;2024-01-16T04:00:52;10.32;;;6.00;;
62848;SDS011;48941;49.516;8.286;2024-01-16T04:03:20;12.95;;;5.93;;
62848;SDS011;48941;49.516;8.286;2024-01-16T04:05:47;17.60;;;6.18;;
62848;SDS011;48941;49.516;8.286;2024-01-16T04:08:17;15.35;;;6.18;;
62848;SDS011;48941;49.516;8.286;2024-01-16T04:10:45;11.98;;;5.78;;
62848;SDS011;48941;49.516;8.286;2024-01-16T04:13:13;16.52;;;5.80;;
62848;SDS011;48941;49.516;8.286;2024-01-16T04:15:42;11.30;;;5.55;;
62848;SDS011;48941;49.516;8.286;2024-01-16T04:18:10;9.18;;;5.22;;
62848;SDS011;48941;49.516;8.286;2024-01-16T04:20:38;10.77;;;5.53;;
62848;SDS011;48941;49.516;8.286;2024-01-16T04:23:07;11.65;;;5.93;;
62848;SDS011;48941;49.516;8.286;2024-01-16T04:25:36;10.77;;;5.70;;
62848;SDS011;48941;49.516;8.286;2024-01-16T04:28:04;11.98;;;5.78;;
62848;SDS011;48941;49.516;8.286;2024-01-16T04:30:32;12.80;;;5.85;;
62848;SDS011;48941;49.516;8.286;2024-01-16T04:33:00;8.77;;;5.38;;
62848;SDS011;48941;49.516;8.286;2024-01-16T04:35:28;14.68;;;6.05;;
62848;SDS011;48941;49.516;8.286;2024-01-16T04:37:56;15.73;;;5.80;;
62848;SDS011;48941;49.516;8.286;2024-01-16T04:40:23;11.45;;;5.50;;
62848;SDS011;48941;49.516;8.286;2024-01-16T04:42:52;11.60;;;5.28;;
62848;SDS011;48941;49.516;8.286;2024-01-16T04:45:20;9.55;;;4.72;;
62848;SDS011;48941;49.516;8.286;2024-01-16T04:47:48;11.52;;;5.30;;
62848;SDS011;48941;49.516;8.286;2024-01-16T04:50:16;11.27;;;5.18;;
62848;SDS011;48941;49.516;8.286;2024-01-16T04:52:44;12.13;;;5.90;;
62848;SDS011;48941;49.516;8.286;2024-01-16T04:55:12;12.00;;;5.07;;
62848;SDS011;48941;49.516;8.286;2024-01-16T04:57:40;10.10;;;4.72;;
62848;SDS011;48941;49.516;8.286;2024-01-16T05:00:10;8.57;;;4.38;;
62848;SDS011;48941;49.516;8.286;2024-01-16T05:02:39;12.48;;;4.32;;
62848;SDS011;48941;49.516;8.286;2024-01-16T05:05:07;10.35;;;4.05;;
62848;SDS011;48941;49.516;8.286;2024-01-16T05:07:35;10.20;;;4.07;;
62848;SDS011;48941;49.516;8.286;2024-01-16T05:10:03;10.30;;;3.55;;
62848;SDS011;48941;49.516;8.286;2024-01-16T05:12:32;11.68;;;4.05;;
62848;SDS011;48941;49.516;8.286;2024-01-16T05:15:00;8.68;;;3.75;;
62848;SDS011;48941;49.516;8.286;2024-01-16T05:17:29;10.18;;;3.90;;
62848;SDS011;48941;49.516;8.286;2024-01-16T05:19:57;6.07;;;3.58;;
62848;SDS011;48941;49.516;8.286;2024-01-16T05:22:25;9.18;;;4.22;;
62848;SDS011;48941;49.516;8.286;2024-01-16T05:24:53;9.77;;;4.60;;
62848;SDS011;48941;49.516;8.286;2024-01-16T05:27:21;10.82;;;4.47;;
62848;SDS011;48941;49.516;8.286;2024-01-16T05:29:48;12.23;;;4.93;;
62848;SDS011;48941;49.516;8.286;2024-01-16T05:32:16;9.32;;;4.38;;
62848;SDS011;48941;49.516;8.286;2024-01-16T05:34:46;13.95;;;6.60;;
62848;SDS011;48941;49.516;8.286;2024-01-16T05:37:13;11.50;;;6.07;;
62848;SDS011;48941;49.516;8.286;2024-01-16T05:39:42;16.27;;;5.82;;
62848;SDS011;48941;49.516;8.286;2024-01-16T05:42:09;9.90;;;5.55;;
62848;SDS011;48941;49.516;8.286;2024-01-16T05:44:38;9.75;;;5.30;;
62848;SDS011;48941;49.516;8.286;2024-01-16T05:47:05;12.32;;;5.70;;
62848;SDS011;48941;49.516;8.286;2024-01-16T05:49:33;9.10;;;5.47;;
62848;SDS011;48941;49.516;8.286;2024-01-16T05:52:03;12.80;;;5.68;;
62848;SDS011;48941;49.516;8.286;2024-01-16T05:54:31;14.60;;;5.70;;
62848;SDS011;48941;49.516;8.286;2024-01-16T05:57:02;14.68;;;5.93;;
62848;SDS011;48941;49.516;8.286;2024-01-16T05:59:29;10.00;;;5.97;;
62848;SDS011;48941;49.516;8.286;2024-01-16T06:01:57;12.55;;;6.13;;
62848;SDS011;48941;49.516;8.286;2024-01-16T06:04:25;10.95;;;5.68;;
62848;SDS011;48941;49.516;8.286;2024-01-16T06:06:53;9.60;;;5.35;;
62848;SDS011;48941;49.516;8.286;2024-01-16T06:09:23;11.48;;;5.80;;
62848;SDS011;48941;49.516;8.286;2024-01-16T06:11:50;16.60;;;6.47;;
62848;SDS011;48941;49.516;8.286;2024-01-16T06:14:18;14.27;;;7.00;;
62848;SDS011;48941;49.516;8.286;2024-01-16T06:16:48;15.43;;;6.85;;
62848;SDS011;48941;49.516;8.286;2024-01-16T06:19:17;20.52;;;10.45;;
62848;SDS011;48941;49.516;8.286;2024-01-16T06:21:45;22.73;;;9.93;;
62848;SDS011;48941;49.516;8.286;2024-01-16T06:24:12;17.35;;;9.43;;
62848;SDS011;48941;49.516;8.286;2024-01-16T06:26:42;16.65;;;8.25;;
62848;SDS011;48941;49.516;8.286;2024-01-16T06:29:10;11.80;;;5.60;;
62848;SDS011;48941;49.516;8.286;2024-01-16T06:31:53;12.25;;;5.85;;
62848;SDS011;48941;49.516;8.286;2024-01-16T06:34:21;12.07;;;5.38;;
62848;SDS011;48941;49.516;8.286;2024-01-16T06:36:49;10.80;;;5.80;;
62848;SDS011;48941;49.516;8.286;2024-01-16T06:39:17;11.68;;;5.75;;
62848;SDS011;48941;49.516;8.286;2024-01-16T06:41:46;10.65;;;5.63;;
62848;SDS011;48941;49.516;8.286;2024-01-16T06:44:13;14.48;;;5.97;;
62848;SDS011;48941;49.516;8.286;2024-01-16T06:46:41;15.65;;;5.65;;
62848;SDS011;48941;49.516;8.286;2024-01-16T06:49:09;13.95;;;5.50;;
62848;SDS011;48941;49.516;8.286;2024-01-16T06:51:37;12.48;;;6.43;;
62848;SDS011;48941;49.516;8.286;2024-01-16T06:54:05;14.93;;;6.45;;
62848;SDS011;48941;49.516;8.286;2024-01-16T06:56:33;14.93;;;6.00;;
62848;SDS011;48941;49.516;8.286;2024-01-16T06:59:02;15.38;;;5.90;;
62848;SDS011;48941;49.516;8.286;2024-01-16T07:01:32;16.88;;;7.13;;
62848;SDS011;48941;49.516;8.286;2024-01-16T07:03:59;16.48;;;6.40;;
62848;SDS011;48941;49.516;8.286;2024-01-16T07:06:28;15.50;;;7.00;;
62848;SDS011;48941;49.516;8.286;2024-01-16T07:08:56;11.23;;;5.95;;
62848;SDS011;48941;49.516;8.286;2024-01-16T07:11:23;13.77;;;6.40;;
62848;SDS011;48941;49.516;8.286;2024-01-16T07:13:51;10.88;;;5.97;;
62848;SDS011;48941;49.516;8.286;2024-01-16T07:16:21;14.55;;;6.72;;
62848;SDS011;48941;49.516;8.286;2024-01-16T07:18:49;17.00;;;6.95;;
62848;SDS011;48941;49.516;8.286;2024-01-16T07:21:17;12.02;;;6.65;;
62848;SDS011;48941;49.516;8.286;2024-01-16T07:23:45;12.73;;;6.35;;
62848;SDS011;48941;49.516;8.286;2024-01-16T07:26:13;16.88;;;7.25;;
62848;SDS011;48941;49.516;8.286;2024-01-16T07:28:42;21.30;;;8.70;;
62848;SDS011;48941;49.516;8.286;2024-01-16T07:31:10;21.05;;;9.45;;
62848;SDS011;48941;49.516;8.286;2024-01-16T07:33:40;25.17;;;12.15;;
62848;SDS011;48941;49.516;8.286;2024-01-16T07:36:08;21.25;;;10.30;;
62848;SDS011;48941;49.516;8.286;2024-01-16T07:38:36;21.02;;;10.15;;
62848;SDS011;48941;49.516;8.286;2024-01-16T07:41:04;13.55;;;7.13;;
62848;SDS011;48941;49.516;8.286;2024-01-16T07:43:32;26.23;;;10.00;;
62848;SDS011;48941;49.516;8.286;2024-01-16T07:46:01;27.15;;;13.52;;
62848;SDS011;48941;49.516;8.286;2024-01-16T07:48:29;29.90;;;13.18;;
62848;SDS011;48941;49.516;8.286;2024-01-16T07:50:59;21.02;;;9.10;;
62848;SDS011;48941;49.516;8.286;2024-01-16T07:53:27;23.25;;;8.63;;
62848;SDS011;48941;49.516;8.286;2024-01-16T07:55:55;17.30;;;7.47;;
62848;SDS011;48941;49.516;8.286;2024-01-16T07:58:23;13.75;;;6.75;;
62848;SDS011;48941;49.516;8.286;2024-01-16T08:00:50;21.92;;;9.45;;
62848;SDS011;48941;49.516;8.286;2024-01-16T08:03:18;17.33;;;8.20;;
62848;SDS011;48941;49.516;8.286;2024-01-16T08:05:46;25.63;;;10.88;;
62848;SDS011;48941;49.516;8.286;2024-01-16T08:08:15;18.20;;;8.57;;
62848;SDS011;48941;49.516;8.286;2024-01-16T08:10:43;19.33;;;8.85;;
62848;SDS011;48941;49.516;8.286;2024-01-16T08:13:11;18.85;;;8.20;;
62848;SDS011;48941;49.516;8.286;2024-01-16T08:15:39;13.77;;;7.07;;
62848;SDS011;48941;49.516;8.286;2024-01-16T08:18:07;11.52;;;6.88;;
62848;SDS011;48941;49.516;8.286;2024-01-16T08:20:35;18.45;;;8.48;;
62848;SDS011;48941;49.516;8.286;2024-01-16T08:23:03;18.08;;;7.03;;
62848;SDS011;48941;49.516;8.286;2024-01-16T08:25:32;18.33;;;8.05;;
62848;SDS011;48941;49.516;8.286;2024-01-16T08:28:00;25.35;;;11.95;;
62848;SDS011;48941;49.516;8.286;2024-01-16T08:30:28;21.42;;;9.98;;
62848;SDS011;48941;49.516;8.286;2024-01-16T08:32:56;17.58;;;7.70;;
62848;SDS011;48941;49.516;8.286;2024-01-16T08:35:24;18.88;;;7.38;;
62848;SDS011;48941;49.516;8.286;2024-01-16T08:37:52;13.77;;;6.00;;
62848;SDS011;48941;49.516;8.286;2024-01-16T08:40:19;13.82;;;6.80;;
62848;SDS011;48941;49.516;8.286;2024-01-16T08:42:48;13.90;;;6.65;;
62848;SDS011;48941;49.516;8.286;2024-01-16T08:45:23;26.42;;;15.05;;
62848;SDS011;48941;49.516;8.286;2024-01-16T08:47:52;19.80;;;8.80;;
62848;SDS011;48941;49.516;8.286;2024-01-16T08:50:20;24.55;;;11.77;;
62848;SDS011;48941;49.516;8.286;2024-01-16T08:52:49;18.48;;;8.90;;
62848;SDS011;48941;49.516;8.286;2024-01-16T08:55:17;20.85;;;10.10;;
62848;SDS011;48941;49.516;8.286;2024-01-16T08:57:45;19.33;;;8.88;;
62848;SDS011;48941;49.516;8.286;2024-01-16T09:00:15;20.10;;;8.45;;
62848;SDS011;48941;49.516;8.286;2024-01-16T09:02:43;20.10;;;8.57;;
62848;SDS011;48941;49.516;8.286;2024-01-16T09:05:11;17.75;;;8.00;;
62848;SDS011;48941;49.516;8.286;2024-01-16T09:07:40;19.20;;;7.88;;
62848;SDS011;48941;49.516;8.286;2024-01-16T09:10:08;13.35;;;7.30;;
62848;SDS011;48941;49.516;8.286;2024-01-16T09:12:36;16.90;;;8.05;;
62848;SDS011;48941;49.516;8.286;2024-01-16T09:15:04;17.25;;;7.30;;
62848;SDS011;48941;49.516;8.286;2024-01-16T09:17:35;17.25;;;7.82;;
62848;SDS011;48941;49.516;8.286;2024-01-16T09:20:03;15.82;;;7.55;;
62848;SDS011;48941;49.516;8.286;2024-01-16T09:22:33;14.32;;;7.65;;
62848;SDS011;48941;49.516;8.286;2024-01-16T09:25:00;16.20;;;8.23;;
62848;SDS011;48941;49.516;8.286;2024-01-16T09:27:28;14.23;;;7.25;;
62848;SDS011;48941;49.516;8.286;2024-01-16T09:29:56;16.77;;;7.57;;
62848;SDS011;48941;49.516;8.286;2024-01-16T09:32:24;21.02;;;8.27;;
62848;SDS011;48941;49.516;8.286;2024-01-16T09:34:54;18.17;;;7.63;;
62848;SDS011;48941;49.516;8.286;2024-01-16T09:37:22;15.02;;;7.82;;
62848;SDS011;48941;49.516;8.286;2024-01-16T09:39:50;14.63;;;6.78;;
62848;SDS011;48941;49.516;8.286;2024-01-16T09:42:20;17.70;;;7.90;;
62848;SDS011;48941;49.516;8.286;2024-01-16T09:44:48;20.95;;;8.65;;
62848;SDS011;48941;49.516;8.286;2024-01-16T09:47:17;27.50;;;9.38;;
62848;SDS011;48941;49.516;8.286;2024-01-16T09:49:45;18.65;;;10.00;;
62848;SDS011;48941;49.516;8.286;2024-01-16T09:52:16;14.25;;;7.82;;
62848;SDS011;48941;49.516;8.286;2024-01-16T09:54:44;14.48;;;7.38;;
62848;SDS011;48941;49.516;8.286;2024-01-16T09:57:12;13.60;;;7.38;;
62848;SDS011;48941;49.516;8.286;2024-01-16T09:59:40;17.88;;;7.18;;
62848;SDS011;48941;49.516;8.286;2024-01-16T10:02:09;14.98;;;7.35;;
62848;SDS011;48941;49.516;8.286;2024-01-16T10:04:38;15.23;;;7.15;;
62848;SDS011;48941;49.516;8.286;2024-01-16T10:07:07;15.57;;;7.28;;
62848;SDS011;48941;49.516;8.286;2024-01-16T10:09:39;18.35;;;7.60;;
62848;SDS011;48941;49.516;8.286;2024-01-16T10:12:07;14.80;;;7.40;;
62848;SDS011;48941;49.516;8.286;2024-01-16T10:14:36;15.20;;;6.85;;
62848;SDS011;48941;49.516;8.286;2024-01-16T10:17:07;16.80;;;7.82;;
62848;SDS011;48941;49.516;8.286;2024-01-16T10:19:47;17.70;;;8.68;;
62848;SDS011;48941;49.516;8.286;2024-01-16T10:22:19;17.25;;;8.10;;
62848;SDS011;48941;49.516;8.286;2024-01-16T10:25:04;14.38;;;7.32;;
62848;SDS011;48941;49.516;8.286;2024-01-16T10:27:32;18.33;;;8.80;;
62848;SDS011;48941;49.516;8.286;2024-01-16T10:30:00;18.50;;;8.32;;
62848;SDS011;48941;49.516;8.286;2024-01-16T10:32:31;15.80;;;8.32;;
62848;SDS011;48941;49.516;8.286;2024-01-16T10:35:04;17.33;;;7.40;;
62848;SDS011;48941;49.516;8.286;2024-01-16T10:37:43;14.45;;;8.40;;
62848;SDS011;48941;49.516;8.286;2024-01-16T10:40:18;17.60;;;8.23;;
62848;SDS011;48941;49.516;8.286;2024-01-16T10:42:56;16.17;;;7.95;;
62848;SDS011;48941;49.516;8.286;2024-01-16T10:45:26;14.77;;;7.20;;
62848;SDS011;48941;49.516;8.286;2024-01-16T10:48:00;16.85;;;7.53;;
62848;SDS011;48941;49.516;8.286;2024-01-16T10:50:29;16.75;;;7.65;;
62848;SDS011;48941;49.516;8.286;2024-01-16T10:52:59;16.80;;;8.45;;
62848;SDS011;48941;49.516;8.286;2024-01-16T10:55:29;21.25;;;7.68;;
62848;SDS011;48941;49.516;8.286;2024-01-16T10:57:58;13.68;;;6.90;;
62848;SDS011;48941;49.516;8.286;2024-01-16T11:00:27;13.75;;;7.05;;
62848;SDS011;48941;49.516;8.286;2024-01-16T11:02:59;16.70;;;7.25;;
62848;SDS011;48941;49.516;8.286;2024-01-16T11:05:31;15.07;;;7.22;;
62848;SDS011;48941;49.516;8.286;2024-01-16T11:08:00;15.20;;;7.32;;
62848;SDS011;48941;49.516;8.286;2024-01-16T11:10:31;13.77;;;7.70;;
62848;SDS011;48941;49.516;8.286;2024-01-16T11:13:00;19.33;;;7.88;;
62848;SDS011;48941;49.516;8.286;2024-01-16T11:15:30;12.85;;;7.07;;
62848;SDS011;48941;49.516;8.286;2024-01-16T11:17:59;16.40;;;7.65;;
62848;SDS011;48941;49.516;8.286;2024-01-16T11:20:29;14.25;;;6.75;;
62848;SDS011;48941;49.516;8.286;2024-01-16T11:23:19;14.07;;;6.60;;
62848;SDS011;48941;49.516;8.286;2024-01-16T11:25:48;17.08;;;7.10;;
62848;SDS011;48941;49.516;8.286;2024-01-16T11:28:16;17.25;;;7.10;;
62848;SDS011;48941;49.516;8.286;2024-01-16T11:30:45;14.68;;;6.38;;
62848;SDS011;48941;49.516;8.286;2024-01-16T11:39:19;17.38;;;6.55;;
62848;SDS011;48941;49.516;8.286;2024-01-16T11:41:49;17.52;;;7.35;;
62848;SDS011;48941;49.516;8.286;2024-01-16T11:47:04;18.05;;;9.65;;
62848;SDS011;48941;49.516;8.286;2024-01-16T11:49:32;13.77;;;6.70;;
62848;SDS011;48941;49.516;8.286;2024-01-16T11:52:00;20.00;;;8.63;;
62848;SDS011;48941;49.516;8.286;2024-01-16T11:54:28;14.75;;;7.32;;
62848;SDS011;48941;49.516;8.286;2024-01-16T12:00:00;12.98;;;6.05;;
62848;SDS011;48941;49.516;8.286;2024-01-16T12:02:44;18.90;;;6.75;;
62848;SDS011;48941;49.516;8.286;2024-01-16T12:05:17;11.77;;;6.32;;
62848;SDS011;48941;49.516;8.286;2024-01-16T12:07:46;12.45;;;6.72;;
62848;SDS011;48941;49.516;8.286;2024-01-16T12:10:16;14.73;;;6.68;;
62848;SDS011;48941;49.516;8.286;2024-01-16T12:12:47;15.63;;;6.93;;
62848;SDS011;48941;49.516;8.286;2024-01-16T12:15:16;14.65;;;7.72;;
62848;SDS011;48941;49.516;8.286;2024-01-16T12:17:52;14.07;;;6.75;;
62848;SDS011;48941;49.516;8.286;2024-01-16T12:20:21;13.60;;;6.47;;
62848;SDS011;48941;49.516;8.286;2024-01-16T12:22:54;15.15;;;6.72;;
62848;SDS011;48941;49.516;8.286;2024-01-16T12:25:23;12.27;;;5.57;;
62848;SDS011;48941;49.516;8.286;2024-01-16T12:28:12;16.35;;;6.22;;
62848;SDS011;48941;49.516;8.286;2024-01-16T12:30:57;12.88;;;5.20;;
62848;SDS011;48941;49.516;8.286;2024-01-16T12:33:26;8.77;;;4.55;;
62848;SDS011;48941;49.516;8.286;2024-01-16T12:36:00;11.02;;;5.07;;
62848;SDS011;48941;49.516;8.286;2024-01-16T12:38:30;11.95;;;5.03;;
62848;SDS011;48941;49.516;8.286;2024-01-16T12:40:58;8.95;;;4.78;;
62848;SDS011;48941;49.516;8.286;2024-01-16T12:43:30;20.55;;;6.57;;
62848;SDS011;48941;49.516;8.286;2024-01-16T12:45:59;11.90;;;4.18;;
62848;SDS011;48941;49.516;8.286;2024-01-16T12:48:27;15.63;;;6.22;;
62848;SDS011;48941;49.516;8.286;2024-01-16T12:50:59;13.60;;;6.07;;
62848;SDS011;48941;49.516;8.286;2024-01-16T12:53:29;14.52;;;5.40;;
62848;SDS011;48941;49.516;8.286;2024-01-16T12:55:58;11.98;;;5.20;;
62848;SDS011;48941;49.516;8.286;2024-01-16T12:58:32;8.73;;;4.68;;
62848;SDS011;48941;49.516;8.286;2024-01-16T13:04:05;11.10;;;3.90;;
62848;SDS011;48941;49.516;8.286;2024-01-16T13:06:33;8.38;;;4.15;;
62848;SDS011;48941;49.516;8.286;2024-01-16T13:09:06;8.23;;;3.58;;
62848;SDS011;48941;49.516;8.286;2024-01-16T13:11:48;8.80;;;3.95;;
62848;SDS011;48941;49.516;8.286;2024-01-16T13:14:19;8.85;;;3.97;;
62848;SDS011;48941;49.516;8.286;2024-01-16T13:16:48;10.95;;;3.97;;
62848;SDS011;48941;49.516;8.286;2024-01-16T13:19:17;11.70;;;4.30;;
62848;SDS011;48941;49.516;8.286;2024-01-16T13:21:46;10.48;;;4.07;;
62848;SDS011;48941;49.516;8.286;2024-01-16T13:24:14;10.95;;;3.78;;
62848;SDS011;48941;49.516;8.286;2024-01-16T13:26:43;11.48;;;4.28;;
62848;SDS011;48941;49.516;8.286;2024-01-16T13:29:11;7.88;;;4.13;;
62848;SDS011;48941;49.516;8.286;2024-01-16T13:31:41;8.88;;;4.45;;
62848;SDS011;48941;49.516;8.286;2024-01-16T13:34:10;10.82;;;4.60;;
62848;SDS011;48941;49.516;8.286;2024-01-16T13:36:38;9.60;;;4.13;;
62848;SDS011;48941;49.516;8.286;2024-01-16T13:39:26;8.82;;;4.18;;
62848;SDS011;48941;49.516;8.286;2024-01-16T13:41:54;7.35;;;3.63;;
62848;SDS011;48941;49.516;8.286;2024-01-16T13:44:22;10.90;;;4.18;;
62848;SDS011;48941;49.516;8.286;2024-01-16T13:46:51;8.85;;;3.70;;
62848;SDS011;48941;49.516;8.286;2024-01-16T13:49:32;11.37;;;4.40;;
62848;SDS011;48941;49.516;8.286;2024-01-16T13:52:00;8.77;;;4.75;;
62848;SDS011;48941;49.516;8.286;2024-01-16T13:54:29;9.30;;;5.20;;
62848;SDS011;48941;49.516;8.286;2024-01-16T13:56:57;14.80;;;5.25;;
62848;SDS011;48941;49.516;8.286;2024-01-16T13:59:33;13.63;;;5.03;;
62848;SDS011;48941;49.516;8.286;2024-01-16T14:02:03;10.57;;;4.85;;
62848;SDS011;48941;49.516;8.286;2024-01-16T14:04:32;11.55;;;5.53;;
62848;SDS011;48941;49.516;8.286;2024-01-16T14:07:00;14.95;;;5.88;;
62848;SDS011;48941;49.516;8.286;2024-01-16T14:09:39;12.02;;;5.80;;
62848;SDS011;48941;49.516;8.286;2024-01-16T14:12:08;12.82;;;5.57;;
62848;SDS011;48941;49.516;8.286;2024-01-16T14:14:36;13.45;;;5.97;;
62848;SDS011;48941;49.516;8.286;2024-01-16T14:17:08;13.93;;;6.45;;
62848;SDS011;48941;49.516;8.286;2024-01-16T14:19:36;12.70;;;7.20;;
62848;SDS011;48941;49.516;8.286;2024-01-16T14:22:05;20.00;;;8.15;;
62848;SDS011;48941;49.516;8.286;2024-01-16T14:24:33;18.60;;;7.93;;
62848;SDS011;48941;49.516;8.286;2024-01-16T14:27:01;13.75;;;7.50;;
62848;SDS011;48941;49.516;8.286;2024-01-16T14:29:29;17.83;;;8.10;;
62848;SDS011;48941;49.516;8.286;2024-01-16T14:31:57;16.30;;;8.20;;
62848;SDS011;48941;49.516;8.286;2024-01-16T14:34:26;14.73;;;7.72;;
62848;SDS011;48941;49.516;8.286;2024-01-16T14:36:54;16.58;;;8.35;;
62848;SDS011;48941;49.516;8.286;2024-01-16T14:39:22;13.32;;;6.53;;
62848;SDS011;48941;49.516;8.286;2024-01-16T14:41:53;18.85;;;7.97;;
62848;SDS011;48941;49.516;8.286;2024-01-16T14:44:21;12.50;;;5.97;;
62848;SDS011;48941;49.516;8.286;2024-01-16T14:46:49;9.38;;;4.72;;
62848;SDS011;48941;49.516;8.286;2024-01-16T14:49:19;13.38;;;5.22;;
62848;SDS011;48941;49.516;8.286;2024-01-16T14:51:49;15.45;;;6.60;;
62848;SDS011;48941;49.516;8.286;2024-01-16T14:54:17;11.30;;;5.68;;
62848;SDS011;48941;49.516;8.286;2024-01-16T14:56:45;14.02;;;6.05;;
62848;SDS011;48941;49.516;8.286;2024-01-16T14:59:15;12.60;;;5.90;;
62848;SDS011;48941;49.516;8.286;2024-01-16T15:01:43;13.15;;;6.05;;